Shipshaw, Canada
Current Conditions -  °F | °C
As of 7:00 PM on Wednesday 28 Jan 2015 (Local Time) from CYBG Reporting Station
Few Clouds Few Clouds  
Wind Chill: -4°   Ceiling: Unl
Heat Index: -4°   Visibility: 25mi
Dew Point: -13°   Wind: 0mph
Humidity: 65%   Direction: NA
Pressure: 30.16"   Gusts: NA
Location:  48.45°N, 71.22°W
Report Text: CYBG 290000Z 00000KT 25SM FEW240 M20/M25 A3016 RMK CI1 SLP233
Loading
Personal Weather Stations






























Interactive Weather Map New forecast layout! Learn more

10-Day Weather Forecast

Advertisements
Track Severe Weather on mobile